»·PEaware :: AAY2561 KOAK-KSNA

AAY2561 :: KOAK-KSNA

FLIGHT INFORMATION

Flight Status: Arrived
Operator:
Allegiant Air
More flights by this operator :: More flights under this callsign
Pilot: Max W. (2591)
Aircraft: MCDONNELL-DOUGLAS MD-88
(MD88)
More flights by this aircraft type
Origin: KOAK Metro Oakland Intl
United States
Destination: KSNA John Wayne-Orange Co
United States
More flights between these airports :: More routes between these airports
Route: +CNDEL4 YYUNG FLW TANDY4
File this flight plan on PilotEdge
Remarks: RMK / SIMBRIEF citationmax dispatch
Altitude:
(Current/Filed)
33,000ft
Speed:
(Current/Filed)
441kts
Departed: 30-Nov-20 06:44 PM
Arrived: 30-Nov-20 07:46 PM
Distance/Time
Traveled:
322nm/1:02
Distance/Time
To Go:
Arrived

Flight Plot

Page will automatically refresh every two minutes.

Flight plan parsing failed; only flown route is shown


Map Options




Map Legend


Flown Route
Filed Route
Departure Airport
Arrival Airport
Navaid (VOR, NDB)
Fix

Horizontal Profiles

Position Reports

Time Latitude Longitude Heading Altitude Ground
Speed
30-Nov-20 18:20 37.711383 -122.216514 141 10ft 0kts
30-Nov-20 18:21 37.711383 -122.216514 141 10ft 0kts
30-Nov-20 18:22 37.711383 -122.216514 141 10ft 0kts
30-Nov-20 18:22 37.711383 -122.216514 141 10ft 0kts
30-Nov-20 18:24 37.711383 -122.216514 141 10ft 0kts
30-Nov-20 18:24 37.711383 -122.216514 141 10ft 0kts
30-Nov-20 18:26 37.711383 -122.216514 141 10ft 0kts
30-Nov-20 18:26 37.711383 -122.216514 141 10ft 0kts
30-Nov-20 18:28 37.711383 -122.216514 141 10ft 0kts
30-Nov-20 18:28 37.711383 -122.216514 141 10ft 0kts
30-Nov-20 18:29 37.711383 -122.216514 141 10ft 0kts
30-Nov-20 18:30 37.711383 -122.216514 141 10ft 0kts
30-Nov-20 18:31 37.711713 -122.216757 159 10ft 2kts
30-Nov-20 18:32 37.712298 -122.216850 185 10ft 1kts
30-Nov-20 18:33 37.712308 -122.216849 185 10ft 0kts
30-Nov-20 18:34 37.712012 -122.217241 225 10ft 0kts
30-Nov-20 18:35 37.711901 -122.217356 214 10ft 1kts
30-Nov-20 18:36 37.711819 -122.217427 214 10ft 0kts
30-Nov-20 18:37 37.711132 -122.217870 199 10ft 0kts
30-Nov-20 18:38 37.708655 -122.216064 203 10ft 12kts
30-Nov-20 18:39 37.705272 -122.216090 129 10ft 17kts
30-Nov-20 18:40 37.703182 -122.213643 159 10ft 0kts
30-Nov-20 18:41 37.701803 -122.214428 282 10ft 11kts
30-Nov-20 18:42 37.702079 -122.215074 307 10ft 0kts
30-Nov-20 18:43 37.707925 -122.223858 311 10ft 159kts
30-Nov-20 18:44 37.738680 -122.269827 309 1477ft 159kts
30-Nov-20 18:45 37.772151 -122.320296 311 4362ft 221kts
30-Nov-20 18:46 37.788147 -122.404893 235 6645ft 280kts
30-Nov-20 18:47 37.714669 -122.435998 191 9306ft 292kts
30-Nov-20 18:48 37.629979 -122.457865 194 10792ft 332kts
30-Nov-20 18:49 37.535487 -122.471532 186 12760ft 351kts
30-Nov-20 18:50 37.437061 -122.483758 192 14691ft 359kts
30-Nov-20 18:51 37.337210 -122.502931 191 16437ft 368kts
30-Nov-20 18:52 37.234639 -122.522020 191 18003ft 377kts
30-Nov-20 18:53 37.129675 -122.541527 190 19411ft 386kts
30-Nov-20 18:54 37.022205 -122.558851 176 20608ft 398kts
30-Nov-20 18:55 36.927364 -122.490614 140 21743ft 405kts
30-Nov-20 18:56 36.839895 -122.406648 141 22777ft 412kts
30-Nov-20 18:58 36.739901 -122.312101 141 23799ft 419kts
30-Nov-20 18:58 36.675595 -122.251292 141 24422ft 423kts
30-Nov-20 18:59 36.586213 -122.155732 122 25176ft 424kts
30-Nov-20 19:00 36.512301 -122.039289 126 25913ft 431kts
30-Nov-20 19:01 36.436088 -121.923916 126 26823ft 430kts
30-Nov-20 19:02 36.360115 -121.808937 126 27567ft 432kts
30-Nov-20 19:03 36.283829 -121.693311 126 28168ft 436kts
30-Nov-20 19:04 36.206508 -121.575948 126 28700ft 441kts
30-Nov-20 19:05 36.128557 -121.457437 126 29197ft 445kts
30-Nov-20 19:06 36.049776 -121.337470 126 29342ft 457kts
30-Nov-20 19:07 35.968098 -121.212840 127 29339ft 470kts
30-Nov-20 19:08 35.886768 -121.088662 127 29307ft 481kts
30-Nov-20 19:09 35.803202 -120.960793 127 29296ft 487kts
30-Nov-20 19:10 35.724881 -120.840775 127 29292ft 492kts
30-Nov-20 19:11 35.638704 -120.708474 126 29299ft 495kts
30-Nov-20 19:12 35.552709 -120.576245 126 29299ft 497kts
30-Nov-20 19:13 35.466312 -120.443153 126 29288ft 499kts
30-Nov-20 19:14 35.379671 -120.309418 126 29262ft 500kts
30-Nov-20 19:15 35.293243 -120.175811 127 29251ft 501kts
30-Nov-20 19:16 35.206432 -120.041421 127 29237ft 502kts
30-Nov-20 19:17 35.119991 -119.907312 127 29248ft 503kts
30-Nov-20 19:18 35.020207 -119.787940 140 29256ft 504kts
30-Nov-20 19:19 34.913192 -119.677364 140 29266ft 507kts
30-Nov-20 19:20 34.828470 -119.589267 140 29246ft 508kts
30-Nov-20 19:21 34.718779 -119.475122 139 28023ft 529kts
30-Nov-20 19:22 34.607896 -119.359617 138 26891ft 512kts
30-Nov-20 19:23 34.503288 -119.250472 138 25054ft 489kts
30-Nov-20 19:24 34.400706 -119.143336 137 23239ft 479kts
30-Nov-20 19:25 34.301133 -119.039243 137 21434ft 466kts
30-Nov-20 19:26 34.204625 -118.938303 137 19624ft 450kts
30-Nov-20 19:27 34.111187 -118.840471 137 17569ft 437kts
30-Nov-20 19:28 34.015856 -118.753954 156 15463ft 425kts
30-Nov-20 19:29 33.903817 -118.714964 163 13976ft 408kts
30-Nov-20 19:30 33.797140 -118.676367 163 13994ft 414kts
30-Nov-20 19:31 33.687450 -118.633483 145 13973ft 416kts
30-Nov-20 19:32 33.619266 -118.522406 121 12549ft 410kts
30-Nov-20 19:33 33.558720 -118.410302 121 10530ft 388kts
30-Nov-20 19:34 33.520543 -118.307784 72 9573ft 312kts
30-Nov-20 19:35 33.567320 -118.226489 51 8191ft 288kts
30-Nov-20 19:36 33.615281 -118.151166 51 6977ft 279kts
30-Nov-20 19:37 33.662223 -118.078471 51 5984ft 260kts
30-Nov-20 19:38 33.705265 -118.016299 33 4730ft 224kts
30-Nov-20 19:39 33.759306 -117.975744 31 3392ft 240kts
30-Nov-20 19:40 33.809597 -117.932590 41 2785ft 213kts
30-Nov-20 19:41 33.810152 -117.871368 135 2302ft 205kts
30-Nov-20 19:42 33.771466 -117.837211 145 1503ft 148kts
30-Nov-20 19:43 33.733130 -117.831898 205 796ft 145kts
30-Nov-20 19:44 33.697384 -117.854967 207 380ft 145kts
30-Nov-20 19:45 33.670301 -117.872179 198 62ft 28kts
30-Nov-20 19:46 33.670803 -117.869174 39 62ft 12kts
30-Nov-20 19:47 33.673961 -117.866561 30 62ft 22kts
30-Nov-20 19:48 33.677665 -117.863668 112 62ft 7kts

Navigation Log

Ident Type
Flight plan parsing failed, navigation log unavailable